Dobrodošli na spletni strani vremenske postaje Senovo. Vse informacije so informativnega značaja, saj vremenska postaja ni del državne mreže meteoroloških postaj. OBVESTILO: Letni količini padavin navedeni na spletni strani je potrebno prišteti 98,1 mm, zaradi izgube podatkov.


Posebna pozornost v zvezi z vremenskimi dogajanji ni potrebna.    Posebna pozornost v zvezi z vremenskimi dogajanji ni potrebna.

Pogled proti Armezu več informacij Pogled proti Armezu


Lisca več informacij Lisca


Radar strel več informacij blitzortung!


Radar padavin več informacij rain snow radar


Obiščite še:

Template documentation
and downloads

And another site



Weather Underground, zgodovina - Tekstovno

Dnevni povzetek za Avgust 29, 2017 Enote:  Metrično    Angleško   Obe
« Predhodni Dan
Naslednji Dan »
Dnevni Tedenski Mesečni Letni Po meri
  Višja: Nižja: Povprečje:
Temperatura: 26.9 °C 13.1 °C 19.8 °C
Točka rosišča: 18.1 °C 10.0 °C 14 °C
Vlažnost: 96 % 39 % 73 %
Hitrost vetra: 8.7 km/h 0.0 km/h 2.6 km/h
Sunki vetra: 19.5 km/h - -
Veter:- - SW
Zračni tlak: 1020.9 hPa 1016.8 hPa -
Padavine: 0.0 mm    
Historical Graphs
 
 
Tabelarni podarki za Avgust 29, 2017
Čas Temperatura Točka rosišča Zračni tlak Veter Hitrost vetra Sunki vetra Vlažnost Intenziteta padavin (urna)
00:01 17.2 °C 16.1 °C 1019.9 hPa WNW 1.4 km/h 5.0 km/h 93 % 0.0 mm
00:06 17.2 °C 16.1 °C 1019.9 hPa WNW 1.9 km/h 5.0 km/h 93 % 0.0 mm
00:11 17.2 °C 16.2 °C 1019.9 hPa WNW 1.1 km/h 4.3 km/h 94 % 0.0 mm
00:16 17.2 °C 16.2 °C 1019.9 hPa Calm     94 % 0.0 mm
00:21 17.2 °C 16.2 °C 1019.9 hPa Calm     94 % 0.0 mm
00:26 17.2 °C 16.2 °C 1019.9 hPa Calm     94 % 0.0 mm
00:31 17.2 °C 16.2 °C 1019.9 hPa WNW 0.5 km/h 3.5 km/h 94 % 0.0 mm
00:36 17.2 °C 16.2 °C 1019.9 hPa NW 1.3 km/h 4.7 km/h 94 % 0.0 mm
00:41 17.2 °C 16.2 °C 1019.9 hPa NW 2.1 km/h 5.5 km/h 94 % 0.0 mm
00:46 17.1 °C 16.1 °C 1019.9 hPa NW 1.4 km/h 5.5 km/h 94 % 0.0 mm
00:56 17.1 °C 16.1 °C 1019.9 hPa NNE 0.2 km/h 2.6 km/h 94 % 0.0 mm
01:01 17.1 °C 16.1 °C 1019.9 hPa Calm     94 % 0.0 mm
01:06 17.1 °C 16.1 °C 1019.9 hPa NNW 0.8 km/h 4.0 km/h 94 % 0.0 mm
01:11 17.1 °C 16.1 °C 1019.9 hPa NNW 1.6 km/h 4.0 km/h 94 % 0.0 mm
01:16 17.1 °C 16.1 °C 1018.8 hPa NNW 1.1 km/h 3.5 km/h 94 % 0.0 mm
01:21 17.1 °C 16.1 °C 1018.8 hPa NNW 0.5 km/h 4.0 km/h 94 % 0.0 mm
01:26 17.1 °C 16.1 °C 1018.8 hPa NW 0.6 km/h 4.7 km/h 94 % 0.0 mm
01:31 17.1 °C 16.1 °C 1018.8 hPa NW 0.8 km/h 4.7 km/h 94 % 0.0 mm
01:36 17.1 °C 16.1 °C 1018.8 hPa NNW 1.1 km/h 5.0 km/h 94 % 0.0 mm
01:41 17.0 °C 16.0 °C 1018.8 hPa NW 0.8 km/h 5.0 km/h 94 % 0.0 mm
01:46 17.0 °C 16.0 °C 1019.9 hPa WNW 0.6 km/h 4.0 km/h 94 % 0.0 mm
01:51 17.0 °C 16.0 °C 1019.9 hPa NW 1.3 km/h 4.7 km/h 94 % 0.0 mm
01:56 17.0 °C 16.0 °C 1019.9 hPa NNW 2.7 km/h 5.8 km/h 94 % 0.0 mm
02:01 17.0 °C 16.0 °C 1019.9 hPa NW 2.9 km/h 5.8 km/h 94 % 0.0 mm
02:06 16.9 °C 16.1 °C 1019.9 hPa NNW 1.8 km/h 4.7 km/h 95 % 0.0 mm
02:11 16.9 °C 16.1 °C 1019.9 hPa NNW 1.8 km/h 4.7 km/h 95 % 0.0 mm
02:17 16.9 °C 16.1 °C 1019.9 hPa NW 2.1 km/h 5.8 km/h 95 % 0.0 mm
02:18 16.9 °C 16.1 °C 1019.9 hPa NW 2.1 km/h 5.8 km/h 95 % 0.0 mm
02:23 16.9 °C 16.1 °C 1019.9 hPa NW 2.4 km/h 4.7 km/h 95 % 0.0 mm
02:28 16.8 °C 16.0 °C 1019.9 hPa NW 2.3 km/h 6.4 km/h 95 % 0.0 mm
02:33 16.8 °C 16.0 °C 1019.9 hPa NW 1.8 km/h 6.4 km/h 95 % 0.0 mm
02:35 16.8 °C 16.0 °C 1019.9 hPa NW 1.9 km/h 6.4 km/h 95 % 0.0 mm
02:40 16.8 °C 16.0 °C 1019.9 hPa North 2.3 km/h 5.0 km/h 95 % 0.0 mm
02:45 16.8 °C 16.0 °C 1019.9 hPa NNW 2.9 km/h 6.1 km/h 95 % 0.0 mm
02:50 16.8 °C 16.0 °C 1019.9 hPa NNW 2.6 km/h 6.1 km/h 95 % 0.0 mm
02:55 16.8 °C 16.0 °C 1019.9 hPa NW 1.1 km/h 5.0 km/h 95 % 0.0 mm
03:00 16.8 °C 16.0 °C 1019.9 hPa NW 0.2 km/h 3.2 km/h 95 % 0.0 mm
03:05 16.8 °C 16.0 °C 1019.9 hPa NW 0.2 km/h 3.2 km/h 95 % 0.0 mm
03:10 16.8 °C 16.0 °C 1019.9 hPa NW 0.8 km/h 4.7 km/h 95 % 0.0 mm
03:15 16.8 °C 16.0 °C 1019.9 hPa NNW 1.4 km/h 4.7 km/h 95 % 0.0 mm
03:20 16.8 °C 16.0 °C 1019.9 hPa NNW 0.8 km/h 4.3 km/h 95 % 0.0 mm
03:25 16.8 °C 16.0 °C 1019.9 hPa WNW 0.5 km/h 4.0 km/h 95 % 0.0 mm
03:30 16.8 °C 16.0 °C 1019.9 hPa West 0.6 km/h 4.7 km/h 95 % 0.0 mm
03:35 16.7 °C 15.9 °C 1018.8 hPa NW 1.0 km/h 4.7 km/h 95 % 0.0 mm
03:41 16.7 °C 15.9 °C 1018.8 hPa NNW 2.6 km/h 5.5 km/h 95 % 0.0 mm
03:46 16.7 °C 15.9 °C 1018.8 hPa NW 3.2 km/h 5.5 km/h 95 % 0.0 mm
03:51 16.6 °C 15.8 °C 1019.9 hPa NW 1.8 km/h 5.5 km/h 95 % 0.0 mm
03:55 16.6 °C 15.8 °C 1019.9 hPa NW 1.6 km/h 4.3 km/h 95 % 0.0 mm
04:01 16.6 °C 15.8 °C 1019.9 hPa NW 2.3 km/h 4.3 km/h 95 % 0.0 mm
04:06 16.6 °C 15.8 °C 1019.9 hPa NW 2.1 km/h 4.0 km/h 95 % 0.0 mm
04:11 16.6 °C 15.8 °C 1019.9 hPa NNW 2.4 km/h 4.3 km/h 95 % 0.0 mm
04:16 16.6 °C 15.8 °C 1019.9 hPa NNW 1.8 km/h 4.3 km/h 95 % 0.0 mm
04:21 16.6 °C 15.8 °C 1019.9 hPa NNW 0.5 km/h 2.6 km/h 95 % 0.0 mm
04:26 16.6 °C 15.8 °C 1019.9 hPa NNW 0.2 km/h 2.6 km/h 95 % 0.0 mm
04:31 16.6 °C 15.8 °C 1019.9 hPa NW 0.2 km/h 2.6 km/h 95 % 0.0 mm
04:36 16.6 °C 15.8 °C 1019.9 hPa NW 0.5 km/h 2.6 km/h 95 % 0.0 mm
04:41 16.5 °C 15.7 °C 1019.9 hPa NW 0.2 km/h 2.1 km/h 95 % 0.0 mm
04:51 16.5 °C 15.7 °C 1019.9 hPa Calm     95 % 0.0 mm
04:56 16.6 °C 15.9 °C 1019.9 hPa Calm     96 % 0.0 mm
05:01 16.6 °C 15.9 °C 1019.9 hPa NW 0.2 km/h 2.6 km/h 96 % 0.0 mm
05:07 16.6 °C 15.9 °C 1019.9 hPa NW 0.3 km/h 2.6 km/h 96 % 0.0 mm
05:12 16.6 °C 15.9 °C 1019.9 hPa Calm     96 % 0.0 mm
05:18 16.6 °C 15.9 °C 1019.9 hPa Calm     96 % 0.0 mm
05:22 16.6 °C 15.9 °C 1019.9 hPa SW 0.2 km/h 2.6 km/h 96 % 0.0 mm
05:23 16.6 °C 15.9 °C 1019.9 hPa SW 0.2 km/h 2.6 km/h 96 % 0.0 mm
05:24 16.6 °C 15.9 °C 1019.9 hPa SW 0.2 km/h 2.6 km/h 96 % 0.0 mm
05:27 16.6 °C 15.9 °C 1019.9 hPa SSW 0.6 km/h 2.6 km/h 96 % 0.0 mm
05:28 16.6 °C 15.9 °C 1019.9 hPa SSW 0.8 km/h 2.6 km/h 96 % 0.0 mm
05:29 16.6 °C 15.9 °C 1019.9 hPa SSW 1.0 km/h 2.6 km/h 96 % 0.0 mm
05:33 16.6 °C 15.9 °C 1019.9 hPa SSW 0.8 km/h 2.6 km/h 96 % 0.0 mm
05:38 16.6 °C 15.9 °C 1019.9 hPa North 0.2 km/h   96 % 0.0 mm
05:43 16.6 °C 15.9 °C 1019.9 hPa Calm     96 % 0.0 mm
05:48 16.6 °C 15.9 °C 1019.9 hPa Calm     96 % 0.0 mm
05:53 16.6 °C 15.9 °C 1019.9 hPa Calm     96 % 0.0 mm
05:58 16.6 °C 15.8 °C 1019.9 hPa Calm     95 % 0.0 mm
06:03 16.6 °C 15.8 °C 1019.9 hPa Calm     95 % 0.0 mm
06:08 16.6 °C 15.8 °C 1019.9 hPa NW 0.2 km/h 3.2 km/h 95 % 0.0 mm
06:13 16.6 °C 15.8 °C 1019.9 hPa NW 0.2 km/h 3.2 km/h 95 % 0.0 mm
06:18 16.6 °C 15.8 °C 1019.9 hPa NNW 1.0 km/h 5.8 km/h 95 % 0.0 mm
06:23 16.6 °C 15.8 °C 1019.9 hPa NNW 1.1 km/h 5.8 km/h 95 % 0.0 mm
06:28 16.6 °C 15.8 °C 1019.9 hPa North 0.2 km/h   95 % 0.0 mm
06:33 16.6 °C 15.8 °C 1019.9 hPa Calm     95 % 0.0 mm
06:38 16.6 °C 15.8 °C 1019.9 hPa West 0.2 km/h 3.2 km/h 95 % 0.0 mm
06:39 16.6 °C 15.8 °C 1019.9 hPa WSW 0.5 km/h 3.2 km/h 95 % 0.0 mm
06:44 16.6 °C 15.8 °C 1019.9 hPa WSW 0.6 km/h 3.2 km/h 95 % 0.0 mm
06:59 16.5 °C 15.7 °C 1019.9 hPa Calm     95 % 0.0 mm
07:04 16.5 °C 15.7 °C 1018.8 hPa Calm     95 % 0.0 mm
07:09 16.5 °C 15.7 °C 1018.8 hPa Calm     95 % 0.0 mm
07:15 16.5 °C 15.7 °C 1018.8 hPa Calm     95 % 0.0 mm
07:20 16.5 °C 15.7 °C 1019.9 hPa Calm     95 % 0.0 mm
07:25 16.5 °C 15.7 °C 1019.9 hPa SW 1.4 km/h 6.9 km/h 95 % 0.0 mm
07:30 16.6 °C 15.8 °C 1019.9 hPa SW 2.1 km/h 6.9 km/h 95 % 0.0 mm
07:35 16.6 °C 15.8 °C 1019.9 hPa SSW 1.3 km/h 5.0 km/h 95 % 0.0 mm
07:40 16.6 °C 15.8 °C 1019.9 hPa SSW 2.7 km/h 5.8 km/h 95 % 0.0 mm
07:45 16.6 °C 15.8 °C 1019.9 hPa SSW 3.1 km/h 5.8 km/h 95 % 0.0 mm
07:50 16.6 °C 15.8 °C 1018.8 hPa SW 2.1 km/h 5.0 km/h 95 % 0.0 mm
07:55 16.6 °C 15.8 °C 1018.8 hPa SW 2.3 km/h 4.0 km/h 95 % 0.0 mm
08:00 16.6 °C 15.8 °C 1018.8 hPa WSW 2.1 km/h 4.0 km/h 95 % 0.0 mm
08:05 16.6 °C 15.8 °C 1019.9 hPa West 1.6 km/h 4.3 km/h 95 % 0.0 mm
08:10 16.6 °C 15.6 °C 1019.9 hPa NW 0.6 km/h 4.3 km/h 94 % 0.0 mm
08:15 16.7 °C 15.7 °C 1019.9 hPa Calm   1.8 km/h 94 % 0.0 mm
08:20 16.8 °C 15.8 °C 1019.9 hPa SSW 0.2 km/h 3.2 km/h 94 % 0.0 mm
08:25 16.8 °C 15.8 °C 1019.9 hPa SW 1.0 km/h 5.8 km/h 94 % 0.0 mm
08:30 16.9 °C 15.9 °C 1019.9 hPa SW 3.7 km/h 8.7 km/h 94 % 0.0 mm
08:35 17.0 °C 16.0 °C 1019.9 hPa SW 5.8 km/h 8.7 km/h 94 % 0.0 mm
08:40 17.2 °C 16.2 °C 1019.9 hPa SW 5.0 km/h 6.9 km/h 94 % 0.0 mm
08:45 17.5 °C 16.5 °C 1019.9 hPa SW 4.8 km/h 6.4 km/h 94 % 0.0 mm
08:50 17.5 °C 16.5 °C 1019.9 hPa SW 5.5 km/h 6.9 km/h 94 % 0.0 mm
08:55 17.7 °C 16.7 °C 1019.9 hPa SW 5.6 km/h 6.9 km/h 94 % 0.0 mm
09:00 17.7 °C 16.6 °C 1019.9 hPa SW 4.8 km/h 7.2 km/h 93 % 0.0 mm
09:05 17.8 °C 16.7 °C 1019.9 hPa WSW 3.5 km/h 7.2 km/h 93 % 0.0 mm
09:07 17.7 °C 16.6 °C 1019.9 hPa WSW 3.5 km/h 7.2 km/h 93 % 0.0 mm
09:11 17.7 °C 16.6 °C 1019.9 hPa WNW 3.2 km/h 6.9 km/h 93 % 0.0 mm
09:17 17.9 °C 16.6 °C 1019.9 hPa WSW 3.9 km/h 6.4 km/h 92 % 0.0 mm
09:22 18.2 °C 16.9 °C 1019.9 hPa SSW 4.3 km/h 7.6 km/h 92 % 0.0 mm
09:27 18.6 °C 17.3 °C 1019.9 hPa SSW 4.7 km/h 7.6 km/h 92 % 0.0 mm
09:32 18.8 °C 17.3 °C 1019.9 hPa SSW 4.8 km/h 6.9 km/h 91 % 0.0 mm
09:42 19.3 °C 17.6 °C 1019.9 hPa SSW 5.3 km/h 7.9 km/h 90 % 0.0 mm
09:43 19.3 °C 17.6 °C 1019.9 hPa SSW 5.5 km/h 6.9 km/h 90 % 0.0 mm
09:48 19.6 °C 17.7 °C 1019.9 hPa SSW 5.6 km/h 8.7 km/h 89 % 0.0 mm
09:53 19.7 °C 17.7 °C 1019.9 hPa SSW 6.1 km/h 8.7 km/h 88 % 0.0 mm
09:58 19.9 °C 17.8 °C 1019.9 hPa SSW 5.6 km/h 8.7 km/h 88 % 0.0 mm
10:03 20.0 °C 17.8 °C 1019.9 hPa SSW 5.3 km/h 7.9 km/h 87 % 0.0 mm
10:08 20.3 °C 17.9 °C 1019.9 hPa SSW 5.6 km/h 8.7 km/h 86 % 0.0 mm
10:13 20.5 °C 18.1 °C 1019.9 hPa SSW 5.5 km/h 8.7 km/h 86 % 0.0 mm
10:18 20.7 °C 17.9 °C 1019.9 hPa SSW 4.7 km/h 6.4 km/h 84 % 0.0 mm
10:23 20.9 °C 18.1 °C 1019.9 hPa SSW 4.8 km/h 9.0 km/h 84 % 0.0 mm
10:28 21.1 °C 17.9 °C 1019.9 hPa SSW 5.3 km/h 9.0 km/h 82 % 0.0 mm
10:34 21.2 °C 18.0 °C 1019.9 hPa SW 5.5 km/h 9.0 km/h 82 % 0.0 mm
10:39 21.5 °C 18.1 °C 1019.9 hPa SW 5.3 km/h 9.0 km/h 81 % 0.0 mm
10:40 21.6 °C 18.0 °C 1019.9 hPa SSW 5.0 km/h 9.0 km/h 80 % 0.0 mm
10:45 21.8 °C 18.0 °C 1019.9 hPa SSW 4.0 km/h 6.1 km/h 79 % 0.0 mm
10:50 22.1 °C 18.1 °C 1019.9 hPa SW 4.0 km/h 6.9 km/h 78 % 0.0 mm
10:55 22.2 °C 18.0 °C 1019.9 hPa SW 3.7 km/h 6.9 km/h 77 % 0.0 mm
11:00 22.3 °C 17.9 °C 1019.9 hPa SW 4.0 km/h 6.9 km/h 76 % 0.0 mm
11:05 22.4 °C 17.9 °C 1019.9 hPa SW 4.2 km/h 6.9 km/h 76 % 0.0 mm
11:10 22.4 °C 17.6 °C 1019.9 hPa WSW 4.2 km/h 8.7 km/h 74 % 0.0 mm
11:15 22.8 °C 17.7 °C 1019.9 hPa SW 3.1 km/h 8.7 km/h 73 % 0.0 mm
11:20 23.0 °C 17.9 °C 1019.9 hPa South 2.1 km/h 5.8 km/h 73 % 0.0 mm
11:25 23.4 °C 17.8 °C 1019.9 hPa SSE 3.7 km/h 9.0 km/h 71 % 0.0 mm
11:30 23.6 °C 17.6 °C 1019.9 hPa South 4.7 km/h 9.0 km/h 69 % 0.0 mm
11:35 23.6 °C 17.1 °C 1018.8 hPa SW 4.2 km/h 6.9 km/h 67 % 0.0 mm
11:40 23.8 °C 17.3 °C 1018.8 hPa SW 3.7 km/h 6.9 km/h 67 % 0.0 mm
11:45 24.0 °C 15.5 °C 1018.8 hPa East 4.2 km/h 10.1 km/h 59 % 0.0 mm
11:50 24.1 °C 14.8 °C 1018.8 hPa East 5.1 km/h 10.1 km/h 56 % 0.0 mm
11:52 24.2 °C 13.7 °C 1018.8 hPa East 5.6 km/h 10.1 km/h 52 % 0.0 mm
11:57 24.3 °C 13.5 °C 1018.8 hPa ESE 5.5 km/h 10.1 km/h 51 % 0.0 mm
12:02 24.4 °C 13.0 °C 1018.8 hPa East 5.1 km/h 12.2 km/h 49 % 0.0 mm
12:07 24.5 °C 12.8 °C 1018.8 hPa East 5.3 km/h 12.2 km/h 48 % 0.0 mm
12:12 24.5 °C 12.4 °C 1018.8 hPa ENE 5.3 km/h 16.3 km/h 47 % 0.0 mm
12:17 24.6 °C 12.2 °C 1019.9 hPa East 6.8 km/h 16.3 km/h 46 % 0.0 mm
12:22 24.7 °C 11.9 °C 1019.9 hPa East 7.4 km/h 16.3 km/h 45 % 0.0 mm
12:27 24.9 °C 12.5 °C 1019.9 hPa ESE 6.0 km/h 13.0 km/h 46 % 0.0 mm
12:32 25.0 °C 11.9 °C 1019.9 hPa ESE 6.1 km/h 12.6 km/h 44 % 0.0 mm
12:37 25.2 °C 12.4 °C 1019.9 hPa ESE 6.6 km/h 11.6 km/h 45 % 0.0 mm
12:43 25.2 °C 12.1 °C 1019.9 hPa ESE 6.4 km/h 10.5 km/h 44 % 0.0 mm
12:48 25.4 °C 12.3 °C 1019.9 hPa SE 6.0 km/h 11.6 km/h 44 % 0.0 mm
12:53 25.5 °C 12.7 °C 1019.9 hPa SE 5.5 km/h 11.6 km/h 45 % 0.0 mm
12:58 25.5 °C 12.0 °C 1019.9 hPa East 5.6 km/h 13.0 km/h 43 % 0.0 mm
13:03 25.5 °C 12.3 °C 1019.9 hPa East 6.0 km/h 13.7 km/h 44 % 0.0 mm
13:08 25.7 °C 12.6 °C 1019.9 hPa ESE 7.2 km/h 13.7 km/h 44 % 0.0 mm
13:13 25.8 °C 12.6 °C 1019.9 hPa ESE 8.7 km/h 14.3 km/h 44 % 0.0 mm
13:18 25.9 °C 12.3 °C 1020.9 hPa ESE 8.0 km/h 14.3 km/h 43 % 0.0 mm
13:23 25.7 °C 12.2 °C 1020.9 hPa ESE 6.6 km/h 16.9 km/h 43 % 0.0 mm
13:28 25.8 °C 12.3 °C 1020.9 hPa ESE 6.9 km/h 19.5 km/h 43 % 0.0 mm
13:33 25.9 °C 12.3 °C 1018.8 hPa ESE 7.4 km/h 19.5 km/h 43 % 0.0 mm
13:36 25.9 °C 12.3 °C 1018.8 hPa ESE 6.9 km/h 13.7 km/h 43 % 0.0 mm
13:41 25.8 °C 11.9 °C 1018.8 hPa East 6.3 km/h 13.0 km/h 42 % 0.0 mm
13:46 25.8 °C 12.3 °C 1018.8 hPa East 5.0 km/h 13.0 km/h 43 % 0.0 mm
13:51 25.7 °C 12.2 °C 1018.8 hPa East 4.5 km/h 13.0 km/h 43 % 0.0 mm
13:56 25.7 °C 11.8 °C 1018.8 hPa East 4.7 km/h 11.9 km/h 42 % 0.0 mm
14:01 25.9 °C 12.3 °C 1018.8 hPa ESE 4.7 km/h 13.0 km/h 43 % 0.0 mm
14:06 26.0 °C 12.1 °C 1018.8 hPa ESE 5.0 km/h 13.0 km/h 42 % 0.0 mm
14:11 26.0 °C 12.1 °C 1018.8 hPa ESE 6.4 km/h 15.8 km/h 42 % 0.0 mm
14:16 26.1 °C 12.2 °C 1018.8 hPa ESE 6.1 km/h 15.8 km/h 42 % 0.0 mm
14:21 26.4 °C 12.8 °C 1018.8 hPa SE 4.5 km/h 10.1 km/h 43 % 0.0 mm
14:26 26.3 °C 12.0 °C 1018.8 hPa ESE 5.3 km/h 12.2 km/h 41 % 0.0 mm
14:31 26.4 °C 12.4 °C 1018.8 hPa ESE 5.8 km/h 12.2 km/h 42 % 0.0 mm
14:36 26.3 °C 12.0 °C 1018.8 hPa East 6.0 km/h 11.9 km/h 41 % 0.0 mm
14:41 26.3 °C 12.4 °C 1018.8 hPa East 6.9 km/h 11.9 km/h 42 % 0.0 mm
14:46 26.3 °C 12.0 °C 1018.2 hPa East 6.1 km/h 17.7 km/h 41 % 0.0 mm
14:51 26.3 °C 12.0 °C 1018.2 hPa ESE 7.9 km/h 17.7 km/h 41 % 0.0 mm
14:56 26.4 °C 12.1 °C 1018.2 hPa ESE 8.5 km/h 16.6 km/h 41 % 0.0 mm
15:01 26.5 °C 11.8 °C 1018.2 hPa ESE 5.8 km/h 9.7 km/h 40 % 0.0 mm
15:06 26.5 °C 12.2 °C 1018.2 hPa ESE 5.3 km/h 9.7 km/h 41 % 0.0 mm
15:11 26.5 °C 12.2 °C 1018.2 hPa East 4.7 km/h 9.7 km/h 41 % 0.0 mm
15:16 26.5 °C 12.2 °C 1018.2 hPa ENE 5.3 km/h 14.0 km/h 41 % 0.0 mm
15:21 26.6 °C 12.3 °C 1018.2 hPa East 5.3 km/h 14.0 km/h 41 % 0.0 mm
15:26 26.6 °C 11.9 °C 1018.2 hPa East 4.7 km/h 9.3 km/h 40 % 0.0 mm
15:31 26.4 °C 11.7 °C 1018.2 hPa East 5.1 km/h 9.3 km/h 40 % 0.0 mm
15:36 26.3 °C 11.6 °C 1018.2 hPa East 4.8 km/h 9.3 km/h 40 % 0.0 mm
15:41 26.4 °C 11.7 °C 1018.2 hPa East 5.5 km/h 15.1 km/h 40 % 0.0 mm
15:46 26.3 °C 11.6 °C 1018.2 hPa East 5.5 km/h 15.1 km/h 40 % 0.0 mm
15:51 26.3 °C 11.2 °C 1018.2 hPa East 4.7 km/h 9.0 km/h 39 % 0.0 mm
15:56 26.4 °C 11.3 °C 1018.2 hPa East 4.8 km/h 9.7 km/h 39 % 0.0 mm
16:01 26.5 °C 11.8 °C 1016.8 hPa East 5.1 km/h 9.7 km/h 40 % 0.0 mm
16:06 26.6 °C 11.9 °C 1016.8 hPa ESE 4.7 km/h 9.3 km/h 40 % 0.0 mm
16:11 26.8 °C 11.7 °C 1016.8 hPa ESE 5.0 km/h 11.6 km/h 39 % 0.0 mm
16:16 26.8 °C 11.7 °C 1016.8 hPa ESE 6.1 km/h 13.0 km/h 39 % 0.0 mm
16:21 26.8 °C 11.7 °C 1016.8 hPa ESE 4.8 km/h 13.0 km/h 39 % 0.0 mm
16:26 26.9 °C 12.2 °C 1016.8 hPa SSE 3.2 km/h 10.1 km/h 40 % 0.0 mm
16:31 26.9 °C 12.2 °C 1016.8 hPa ESE 5.3 km/h 10.1 km/h 40 % 0.0 mm
16:36 26.8 °C 12.1 °C 1016.8 hPa ESE 6.3 km/h 10.1 km/h 40 % 0.0 mm
16:46 26.7 °C 12.0 °C 1018.2 hPa ESE 5.6 km/h 19.5 km/h 40 % 0.0 mm
16:51 26.6 °C 11.9 °C 1018.2 hPa SE 3.7 km/h 7.6 km/h 40 % 0.0 mm
16:56 26.5 °C 11.8 °C 1018.2 hPa ESE 4.8 km/h 10.5 km/h 40 % 0.0 mm
17:01 26.5 °C 11.8 °C 1018.2 hPa SSE 5.0 km/h 10.5 km/h 40 % 0.0 mm
17:06 26.6 °C 11.9 °C 1018.2 hPa SSE 4.3 km/h 9.7 km/h 40 % 0.0 mm
17:11 26.6 °C 11.9 °C 1018.2 hPa ESE 4.8 km/h 9.3 km/h 40 % 0.0 mm
17:16 26.6 °C 11.9 °C 1018.2 hPa ESE 5.1 km/h 9.3 km/h 40 % 0.0 mm
17:21 26.6 °C 11.9 °C 1018.2 hPa SE 6.0 km/h 11.6 km/h 40 % 0.0 mm
17:29 26.6 °C 11.9 °C 1018.2 hPa SE 6.4 km/h 12.6 km/h 40 % 0.0 mm
17:34 26.5 °C 11.8 °C 1018.2 hPa South 4.3 km/h 12.6 km/h 40 % 0.0 mm
17:39 26.4 °C 11.7 °C 1018.2 hPa SSW 3.4 km/h 9.0 km/h 40 % 0.0 mm
17:44 26.3 °C 11.6 °C 1018.2 hPa South 4.2 km/h 9.0 km/h 40 % 0.0 mm
17:49 26.0 °C 11.3 °C 1018.2 hPa South 4.0 km/h 7.9 km/h 40 % 0.0 mm
17:54 25.8 °C 11.2 °C 1018.2 hPa South 3.1 km/h 6.9 km/h 40 % 0.0 mm
17:59 25.4 °C 10.8 °C 1018.2 hPa South 3.4 km/h 10.1 km/h 40 % 0.0 mm
18:04 25.0 °C 10.8 °C 1018.2 hPa SSE 4.2 km/h 10.1 km/h 41 % 0.0 mm
18:09 24.8 °C 10.7 °C 1018.2 hPa SSE 2.9 km/h 9.0 km/h 41 % 0.0 mm
18:14 24.5 °C 10.4 °C 1018.2 hPa South 1.9 km/h 7.6 km/h 41 % 0.0 mm
18:19 24.2 °C 10.1 °C 1018.2 hPa South 3.4 km/h 8.7 km/h 41 % 0.0 mm
18:24 24.0 °C 10.3 °C 1018.2 hPa South 2.6 km/h 8.7 km/h 42 % 0.0 mm
18:29 23.7 °C 10.0 °C 1018.2 hPa SE 1.0 km/h 6.4 km/h 42 % 0.0 mm
18:34 23.5 °C 10.2 °C 1018.2 hPa SE 1.1 km/h 6.4 km/h 43 % 0.0 mm
18:37 23.3 °C 10.0 °C 1018.2 hPa South 1.3 km/h 4.7 km/h 43 % 0.0 mm
18:42 23.1 °C 10.2 °C 1018.2 hPa South 1.9 km/h 4.7 km/h 44 % 0.0 mm
18:47 22.6 °C 10.1 °C 1018.2 hPa SW 1.3 km/h 4.3 km/h 45 % 0.0 mm
18:52 22.2 °C 10.3 °C 1018.2 hPa NW 1.9 km/h 6.1 km/h 47 % 0.0 mm
18:57 21.7 °C 10.5 °C 1018.2 hPa NNW 2.4 km/h 6.1 km/h 49 % 0.0 mm
19:02 21.4 °C 10.8 °C 1018.2 hPa NNW 2.3 km/h 5.0 km/h 51 % 0.0 mm
19:07 21.1 °C 10.8 °C 1018.2 hPa NNW 1.8 km/h 4.7 km/h 52 % 0.0 mm
19:12 20.7 °C 11.3 °C 1018.2 hPa NNW 1.6 km/h 5.0 km/h 55 % 0.0 mm
19:17 20.4 °C 11.3 °C 1018.2 hPa NNW 1.1 km/h 5.0 km/h 56 % 0.0 mm
19:22 20.1 °C 11.3 °C 1018.2 hPa NNW 1.3 km/h 6.4 km/h 57 % 0.0 mm
19:27 19.9 °C 11.4 °C 1018.2 hPa NNW 2.3 km/h 6.4 km/h 58 % 0.0 mm
19:32 19.7 °C 11.4 °C 1018.2 hPa NW 1.9 km/h 5.5 km/h 59 % 0.0 mm
19:37 19.5 °C 11.8 °C 1018.2 hPa NNW 1.8 km/h 4.3 km/h 61 % 0.0 mm
19:42 19.3 °C 11.6 °C 1018.2 hPa NNW 2.4 km/h 4.7 km/h 61 % 0.0 mm
19:47 19.1 °C 11.9 °C 1018.2 hPa NW 1.8 km/h 4.7 km/h 63 % 0.0 mm
19:52 18.8 °C 11.6 °C 1018.2 hPa NW 0.3 km/h 2.1 km/h 63 % 0.0 mm
19:57 18.5 °C 11.8 °C 1018.2 hPa NNW 0.8 km/h 3.5 km/h 65 % 0.0 mm
20:02 18.3 °C 11.8 °C 1018.2 hPa NNW 1.0 km/h 3.5 km/h 66 % 0.0 mm
20:07 17.9 °C 11.9 °C 1018.2 hPa North 0.5 km/h 3.5 km/h 68 % 0.0 mm
20:13 17.7 °C 11.9 °C 1018.2 hPa North 0.3 km/h 3.5 km/h 69 % 0.0 mm
20:18 17.6 °C 11.8 °C 1018.8 hPa NW 0.2 km/h 3.5 km/h 69 % 0.0 mm
20:23 17.4 °C 11.7 °C 1018.8 hPa NW 0.2 km/h 3.5 km/h 69 % 0.0 mm
20:26 17.3 °C 11.8 °C 1018.8 hPa NW 0.2 km/h 3.5 km/h 70 % 0.0 mm
20:31 17.1 °C 11.8 °C 1018.2 hPa Calm     71 % 0.0 mm
20:33 17.0 °C 11.7 °C 1018.2 hPa Calm     71 % 0.0 mm
20:38 16.8 °C 11.7 °C 1018.2 hPa Calm     72 % 0.0 mm
20:43 16.7 °C 11.6 °C 1018.2 hPa NW 0.5 km/h 3.5 km/h 72 % 0.0 mm
20:48 16.5 °C 11.4 °C 1016.8 hPa NW 0.8 km/h 3.5 km/h 72 % 0.0 mm
20:53 16.3 °C 11.7 °C 1016.8 hPa NW 0.5 km/h 3.2 km/h 74 % 0.0 mm
20:58 16.2 °C 11.3 °C 1016.8 hPa Calm     73 % 0.0 mm
21:03 16.1 °C 11.7 °C 1016.8 hPa Calm     75 % 0.0 mm
21:08 15.9 °C 11.4 °C 1016.8 hPa Calm     75 % 0.0 mm
21:13 15.8 °C 11.4 °C 1016.8 hPa Calm     75 % 0.0 mm
21:18 15.7 °C 11.5 °C 1018.2 hPa Calm     76 % 0.0 mm
21:23 15.6 °C 11.4 °C 1018.2 hPa Calm     76 % 0.0 mm
21:28 15.4 °C 11.4 °C 1018.2 hPa Calm     77 % 0.0 mm
21:33 15.3 °C 11.5 °C 1018.2 hPa Calm     78 % 0.0 mm
21:38 15.3 °C 11.5 °C 1018.2 hPa Calm     78 % 0.0 mm
21:43 15.2 °C 11.4 °C 1018.2 hPa Calm     78 % 0.0 mm
21:53 15.0 °C 11.2 °C 1018.2 hPa Calm     78 % 0.0 mm
21:58 14.9 °C 11.5 °C 1018.2 hPa Calm     80 % 0.0 mm
22:03 14.8 °C 11.4 °C 1018.2 hPa Calm     80 % 0.0 mm
22:08 14.7 °C 11.3 °C 1018.2 hPa NW 0.5 km/h 3.5 km/h 80 % 0.0 mm
22:13 14.7 °C 11.3 °C 1018.2 hPa NW 0.5 km/h 3.5 km/h 80 % 0.0 mm
22:18 14.5 °C 11.3 °C 1018.2 hPa Calm     81 % 0.0 mm
22:23 14.5 °C 11.3 °C 1018.2 hPa Calm     81 % 0.0 mm
22:28 14.4 °C 11.2 °C 1018.2 hPa Calm     81 % 0.0 mm
22:33 14.3 °C 11.3 °C 1018.2 hPa Calm     82 % 0.0 mm
22:38 14.2 °C 11.2 °C 1018.2 hPa Calm     82 % 0.0 mm
22:43 14.2 °C 11.2 °C 1018.2 hPa Calm     82 % 0.0 mm
22:48 14.0 °C 11.0 °C 1018.2 hPa Calm     82 % 0.0 mm
22:53 14.0 °C 11.2 °C 1018.2 hPa Calm     83 % 0.0 mm
23:03 13.8 °C 10.9 °C 1018.2 hPa Calm     83 % 0.0 mm
23:08 13.8 °C 10.9 °C 1018.2 hPa Calm     83 % 0.0 mm
23:13 13.7 °C 11.1 °C 1018.2 hPa Calm     84 % 0.0 mm
23:18 13.6 °C 10.8 °C 1018.2 hPa Calm     83 % 0.0 mm
23:23 13.5 °C 10.8 °C 1018.2 hPa Calm     84 % 0.0 mm
23:28 13.5 °C 10.8 °C 1018.2 hPa Calm     84 % 0.0 mm
23:33 13.4 °C 10.8 °C 1018.2 hPa Calm     84 % 0.0 mm
23:38 13.3 °C 10.8 °C 1018.2 hPa Calm     85 % 0.0 mm
23:43 13.3 °C 10.8 °C 1018.2 hPa Calm     85 % 0.0 mm
23:48 13.3 °C 10.8 °C 1018.2 hPa NW 0.3 km/h 2.6 km/h 85 % 0.0 mm
23:53 13.2 °C 10.7 °C 1018.2 hPa NW 0.3 km/h 2.6 km/h 85 % 0.0 mm
23:58 13.1 °C 10.6 °C 1018.2 hPa Calm     85 % 0.0 mm
Vremenska postaja Senovo
Podatki zbrani iz Weather Underground - 3 mb

Script developed by  Jim McMurry - jmcmurry@mwt.net Adapted for the template by  Wim van der Kuil - Leuven-Template.eu

Vremenski podatki so objavljeni na:

WeatherCloud

Weather Underground

AWEKAS

HAMweather, WeatherForYou, PWS Weather

MapView

Geostik

Slovenia weather network

Oprema, ki se uporablja:

Vremenski program
Cumulus

Cumulus